Isla De Los Estados, Argentina
Current Conditions -  °F | °C
As of 2:00 AM on Friday 31 Oct 2014 (Local Time) from SAWH Reporting Station
Heavy Snow Heavy Snow  
Wind Chill: 21°   Ceiling: 1200
Heat Index: 32°   Visibility: 1.8mi
Dew Point: 27°   Wind: 17mph
Humidity: 80%   Direction: 230°SW
Pressure: 29.88"   Gusts: 29mph
Location:  54.93°S, 64.65°W
Report Text: SAWH 310500Z 23015G25KT 3000 +SN OVC012M00/M03 Q1012
Loading
Personal Weather Stations






























Interactive Weather Map
Tropical Storm Tracking
New forecast layout! Learn more

10-Day Weather Forecast

Advertisements
Track Severe Weather on mobile